Time;durP1;ratioP1;P1;durP2;ratioP2;P2;SDS_P1;SDS_P2;PMS_P1;PMS_P2;Temp;Humidity;BMP_temperature;BMP_pressure;BME280_temperature;BME280_humidity;BME280_pressure;Samples;Min_cycle;Max_cycle;Signal;HPM_P1;HPM_P2
2023/05/13 00:01:37;;;;;;;1999.90;999.90;;;;;;;10.69;100.00;94745.38;5106161;28;20172;-62
2023/05/13 00:04:07;;;;;;;1999.90;999.90;;;;;;;10.58;100.00;94736.63;5105631;28;20197;-62
2023/05/13 00:06:33;;;;;;;1999.90;999.90;;;;;;;10.60;100.00;94732.28;5105530;28;20375;-62
2023/05/13 00:08:59;;;;;;;1999.90;999.90;;;;;;;10.56;100.00;94719.91;5106090;28;20179;-62
2023/05/13 00:11:25;;;;;;;1999.90;999.90;;;;;;;10.71;100.00;94707.50;5105632;28;20198;-62
2023/05/13 00:13:50;;;;;;;1999.90;999.90;;;;;;;10.59;100.00;94716.34;5105307;28;20212;-62
2023/05/13 00:16:16;;;;;;;1999.90;999.90;;;;;;;10.68;100.00;94711.06;5106079;28;20174;-63
2023/05/13 00:18:41;;;;;;;1999.90;999.90;;;;;;;10.65;100.00;94717.38;5106022;28;20220;-62
2023/05/13 00:21:06;;;;;;;1999.90;999.90;;;;;;;10.63;100.00;94719.78;5105199;28;20222;-62
2023/05/13 00:23:32;;;;;;;1999.90;999.90;;;;;;;10.72;100.00;94711.78;5105803;28;20175;-63
2023/05/13 00:25:58;;;;;;;1999.90;999.90;;;;;;;10.66;100.00;94721.63;5105746;28;20242;-62
2023/05/13 00:28:23;;;;;;;1999.90;999.90;;;;;;;10.63;100.00;94717.03;5105217;28;20195;-63
2023/05/13 00:30:49;;;;;;;1999.90;999.90;;;;;;;10.60;100.00;94720.59;5105076;28;20202;-62
2023/05/13 00:33:14;;;;;;;1999.90;999.90;;;;;;;10.53;100.00;94715.28;5104959;28;20211;-63
2023/05/13 00:35:40;;;;;;;1999.90;999.90;;;;;;;10.55;100.00;94701.97;5105031;28;20176;-62
2023/05/13 00:38:06;;;;;;;1999.90;999.90;;;;;;;10.41;100.00;94703.00;5105027;28;20225;-62
2023/05/13 00:40:34;;;;;;;1999.90;999.90;;;;;;;10.39;100.00;94683.56;5104798;28;20182;-62
2023/05/13 00:43:00;;;;;;;1999.90;999.90;;;;;;;10.45;100.00;94670.19;5104841;28;20205;-62
2023/05/13 00:45:25;;;;;;;1999.90;999.90;;;;;;;10.40;100.00;94674.19;5104943;28;20194;-63
2023/05/13 00:47:51;;;;;;;1999.90;999.90;;;;;;;10.41;100.00;94674.97;5104865;28;20173;-62
2023/05/13 00:50:16;;;;;;;1999.90;999.90;;;;;;;10.45;100.00;94664.75;5105475;28;20180;-63
2023/05/13 00:52:41;;;;;;;1999.90;999.90;;;;;;;10.45;100.00;94665.50;5105234;28;20210;-63
2023/05/13 00:55:08;;;;;;;1999.90;999.90;;;;;;;10.25;100.00;94666.69;5104673;28;20206;-62
2023/05/13 00:57:34;;;;;;;1999.90;999.90;;;;;;;10.15;100.00;94652.03;5104820;28;20177;-62
2023/05/13 01:00:01;;;;;;;1999.90;999.90;;;;;;;10.31;100.00;94632.25;5104310;28;20185;-63
2023/05/13 01:02:34;;;;;;;1999.90;999.90;;;;;;;10.37;100.00;94614.22;5105058;28;20184;-63
2023/05/13 01:05:19;;;;;;;1999.90;999.90;;;;;;;10.26;100.00;94619.13;5105326;28;20170;-63
2023/05/13 01:07:57;;;;;;;1999.90;999.90;;;;;;;10.28;100.00;94606.59;5104788;28;20261;-62
2023/05/13 01:10:33;;;;;;;1999.90;999.90;;;;;;;10.30;100.00;94592.53;5104378;28;20179;-63
2023/05/13 01:13:08;;;;;;;1999.90;999.90;;;;;;;10.20;100.00;94582.59;5104848;28;20211;-63
2023/05/13 01:15:39;;;;;;;1999.90;999.90;;;;;;;10.24;100.00;94577.81;5104210;28;20247;-63
2023/05/13 01:18:08;;;;;;;1999.90;999.90;;;;;;;10.18;100.00;94565.84;5104796;28;20212;-62
2023/05/13 01:20:34;;;;;;;1999.90;999.90;;;;;;;10.21;100.00;94552.16;5104313;28;20200;-62
2023/05/13 01:22:59;;;;;;;1999.90;999.90;;;;;;;10.21;100.00;94545.94;5104267;28;20180;-62
2023/05/13 01:25:25;;;;;;;1999.90;999.90;;;;;;;10.25;100.00;94568.44;5103721;28;20171;-63
2023/05/13 01:27:51;;;;;;;1999.90;999.90;;;;;;;10.15;100.00;94553.84;5104263;28;20179;-62
2023/05/13 01:30:18;;;;;;;1999.90;999.90;;;;;;;10.10;100.00;94508.72;5104639;28;20242;-63
2023/05/13 01:32:44;;;;;;;1999.90;999.90;;;;;;;10.16;100.00;94478.97;5104695;28;20265;-63
2023/05/13 01:35:10;;;;;;;1999.90;999.90;;;;;;;10.15;100.00;94458.34;5103870;28;20206;-63
2023/05/13 01:37:36;;;;;;;1999.90;999.90;;;;;;;10.20;100.00;94440.72;5104167;28;20238;-63
2023/05/13 01:40:02;;;;;;;1999.90;999.90;;;;;;;10.15;100.00;94433.81;5104628;28;20173;-63
2023/05/13 01:42:29;;;;;;;1999.90;999.90;;;;;;;10.11;100.00;94424.94;5104477;28;20189;-63
2023/05/13 01:44:54;;;;;;;1999.90;999.90;;;;;;;10.10;100.00;94420.69;5103931;28;20269;-63
2023/05/13 01:47:20;;;;;;;1999.90;999.90;;;;;;;10.03;100.00;94409.88;5103884;28;20177;-63
2023/05/13 01:49:45;;;;;;;1999.90;999.90;;;;;;;10.09;100.00;94387.16;5104244;28;20177;-63
2023/05/13 01:52:10;;;;;;;1999.90;999.90;;;;;;;10.00;100.00;94384.22;5104382;28;20204;-63
2023/05/13 01:54:36;;;;;;;1999.90;999.90;;;;;;;10.03;100.00;94375.19;5104380;28;20177;-63
2023/05/13 01:57:02;;;;;;;1999.90;999.90;;;;;;;10.10;100.00;94350.50;5104424;28;20172;-63
2023/05/13 01:59:27;;;;;;;1999.90;999.90;;;;;;;10.09;100.00;94338.06;5103904;28;20175;-62
2023/05/13 02:01:52;;;;;;;1999.90;999.90;;;;;;;10.06;100.00;94333.44;5104399;28;20253;-63
2023/05/13 02:04:18;;;;;;;1999.90;999.90;;;;;;;10.17;100.00;94333.22;5104185;28;20199;-63
2023/05/13 02:06:43;;;;;;;1999.90;999.90;;;;;;;10.13;100.00;94314.19;5103847;28;20178;-62
2023/05/13 02:09:08;;;;;;;1999.90;999.90;;;;;;;10.10;100.00;94312.31;5103753;28;20203;-63
2023/05/13 02:11:34;;;;;;;1999.90;999.90;;;;;;;10.01;100.00;94305.88;5103654;28;20203;-62
2023/05/13 02:14:00;;;;;;;1999.90;999.90;;;;;;;10.01;100.00;94290.31;5103716;28;20182;-63
2023/05/13 02:16:25;;;;;;;1999.90;999.90;;;;;;;10.16;100.00;94281.81;5103684;28;20173;-63
2023/05/13 02:18:50;;;;;;;1999.90;999.90;;;;;;;10.12;100.00;94281.13;5104243;28;20194;-63
2023/05/13 02:21:16;;;;;;;1999.90;999.90;;;;;;;9.92;100.00;94273.75;5103532;28;20228;-64
2023/05/13 02:23:41;;;;;;;1999.90;999.90;;;;;;;10.05;100.00;94258.28;5104037;28;20173;-63
2023/05/13 02:26:06;;;;;;;1999.90;999.90;;;;;;;10.19;100.00;94250.94;5103625;28;20169;-63
2023/05/13 02:28:32;;;;;;;1999.90;999.90;;;;;;;10.14;100.00;94247.53;5103589;28;20177;-63
2023/05/13 02:30:57;;;;;;;1999.90;999.90;;;;;;;10.08;100.00;94249.25;5104162;28;20200;-63
2023/05/13 02:33:22;;;;;;;1999.90;999.90;;;;;;;10.15;100.00;94248.31;5103684;28;20270;-63
2023/05/13 02:35:48;;;;;;;1999.90;999.90;;;;;;;10.21;100.00;94232.97;5104418;28;20170;-65
2023/05/13 02:38:13;;;;;;;1999.90;999.90;;;;;;;10.16;100.00;94247.09;5107261;28;20169;-64
2023/05/13 02:40:39;;;;;;;1999.90;999.90;;;;;;;10.06;100.00;94239.97;5107433;28;20201;-63
2023/05/13 02:43:04;;;;;;;1999.90;999.90;;;;;;;10.05;100.00;94233.75;5107153;28;20229;-63
2023/05/13 02:45:29;;;;;;;1999.90;999.90;;;;;;;9.94;100.00;94219.56;5107565;28;20199;-63
2023/05/13 02:47:56;;;;;;;1999.90;999.90;;;;;;;9.95;100.00;94191.09;5107510;28;20181;-63
2023/05/13 02:50:21;;;;;;;1999.90;999.90;;;;;;;9.97;100.00;94106.91;5107761;28;20221;-63
2023/05/13 02:52:47;;;;;;;1999.90;999.90;;;;;;;9.86;100.00;94081.91;5107239;28;20201;-63
2023/05/13 02:55:12;;;;;;;1999.90;999.90;;;;;;;9.93;100.00;94048.97;5106992;28;20195;-63
2023/05/13 02:57:38;;;;;;;1999.90;999.90;;;;;;;9.93;100.00;94046.25;5106972;28;20237;-63
2023/05/13 03:00:06;;;;;;;1999.90;999.90;;;;;;;9.86;100.00;94024.63;5107720;28;20165;-63
2023/05/13 03:02:33;;;;;;;1999.90;999.90;;;;;;;9.93;100.00;94013.53;5106741;28;20167;-63
2023/05/13 03:04:58;;;;;;;1999.90;999.90;;;;;;;9.96;100.00;94007.22;5106778;28;20176;-63
2023/05/13 03:07:24;;;;;;;1999.90;999.90;;;;;;;9.92;100.00;94006.53;5106361;28;20168;-63
2023/05/13 03:09:49;;;;;;;1999.90;999.90;;;;;;;9.93;100.00;93994.44;5106910;28;20195;-64
2023/05/13 03:12:15;;;;;;;1999.90;999.90;;;;;;;9.96;100.00;93988.13;5107205;28;20203;-63
2023/05/13 03:14:42;;;;;;;1999.90;999.90;;;;;;;10.04;100.00;93992.19;5107166;28;20177;-63
2023/05/13 03:17:08;;;;;;;1999.90;999.90;;;;;;;10.01;100.00;93987.59;5106520;28;20197;-63
2023/05/13 03:19:36;;;;;;;1999.90;999.90;;;;;;;10.06;100.00;93989.06;5106259;28;20173;-64
2023/05/13 03:22:02;;;;;;;1999.90;999.90;;;;;;;10.01;100.00;93998.50;5107086;28;20191;-63
2023/05/13 03:24:27;;;;;;;1999.90;999.90;;;;;;;10.08;100.00;94006.50;5106916;28;20172;-63
2023/05/13 03:26:53;;;;;;;1999.90;999.90;;;;;;;10.13;100.00;94016.13;5106448;28;20170;-63
2023/05/13 03:29:18;;;;;;;1999.90;999.90;;;;;;;10.03;100.00;94028.81;5106540;28;20234;-64
2023/05/13 03:31:44;;;;;;;1999.90;999.90;;;;;;;9.97;100.00;94033.28;5106210;28;20228;-63
2023/05/13 03:34:10;;;;;;;1999.90;999.90;;;;;;;9.89;100.00;94029.22;5106752;28;20171;-63
2023/05/13 03:36:35;;;;;;;1999.90;999.90;;;;;;;10.04;100.00;94035.03;5106790;28;20183;-63
2023/05/13 03:39:00;;;;;;;1999.90;999.90;;;;;;;9.96;100.00;94039.94;5106070;28;20165;-62
2023/05/13 03:41:27;;;;;;;1999.90;999.90;;;;;;;10.01;100.00;94036.69;5106262;28;20174;-64
2023/05/13 03:43:53;;;;;;;1999.90;999.90;;;;;;;10.08;100.00;94036.50;5106029;28;20218;-63
2023/05/13 03:46:18;;;;;;;1999.90;999.90;;;;;;;10.04;100.00;94033.09;5106553;28;20169;-63
2023/05/13 03:48:44;;;;;;;1999.90;999.90;;;;;;;9.94;100.00;94047.00;5105408;28;20173;-63
2023/05/13 03:51:10;;;;;;;1999.90;999.90;;;;;;;9.98;100.00;94062.06;5105910;28;20205;-64
2023/05/13 03:53:35;;;;;;;1999.90;999.90;;;;;;;9.96;100.00;94056.31;5105928;28;20202;-63
2023/05/13 03:56:01;;;;;;;1999.90;999.90;;;;;;;10.02;100.00;94054.56;5106563;28;20169;-63
2023/05/13 03:58:26;;;;;;;1999.90;999.90;;;;;;;10.02;100.00;94059.28;5105907;28;20181;-64
2023/05/13 04:00:51;;;;;;;1999.90;999.90;;;;;;;9.99;100.00;94069.06;5105776;28;20172;-63
2023/05/13 04:03:17;;;;;;;1999.90;999.90;;;;;;;10.02;100.00;94065.47;5105787;28;20174;-64
2023/05/13 04:05:46;;;;;;;1999.90;999.90;;;;;;;10.01;100.00;94066.69;5105652;28;20218;-63
2023/05/13 04:08:12;;;;;;;1999.90;999.90;;;;;;;9.98;100.00;94070.25;5105585;28;20169;-63
2023/05/13 04:10:37;;;;;;;1999.90;999.90;;;;;;;9.82;100.00;94072.28;5106077;28;20177;-64
2023/05/13 04:13:03;;;;;;;1999.90;999.90;;;;;;;9.76;100.00;94068.53;5105835;28;20307;-63
2023/05/13 04:15:30;;;;;;;1999.90;999.90;;;;;;;9.75;100.00;94062.31;5105850;28;20222;-63
2023/05/13 04:17:56;;;;;;;1999.90;999.90;;;;;;;9.75;100.00;94040.53;5105867;28;20197;-63
2023/05/13 04:20:21;;;;;;;1999.90;999.90;;;;;;;9.77;100.00;94029.94;5105624;28;20210;-63
2023/05/13 04:22:47;;;;;;;1999.90;999.90;;;;;;;9.80;100.00;94022.88;5105772;28;20240;-63
2023/05/13 04:25:13;;;;;;;1999.90;999.90;;;;;;;9.87;100.00;94014.47;5105426;28;20161;-64
2023/05/13 04:27:38;;;;;;;1999.90;999.90;;;;;;;9.82;100.00;93995.94;5105099;28;20416;-63
2023/05/13 04:30:04;;;;;;;1999.90;999.90;;;;;;;9.88;100.00;93981.34;5105606;28;20165;-63
2023/05/13 04:32:30;;;;;;;1999.90;999.90;;;;;;;9.96;100.00;93985.41;5104970;28;20216;-63
2023/05/13 04:34:56;;;;;;;1999.90;999.90;;;;;;;9.79;100.00;93989.38;5105122;28;20169;-63
2023/05/13 04:37:21;;;;;;;1999.90;999.90;;;;;;;9.90;100.00;93970.78;5104920;28;20166;-64
2023/05/13 04:39:47;;;;;;;1999.90;999.90;;;;;;;9.95;100.00;93970.22;5105128;28;20230;-63
2023/05/13 04:42:13;;;;;;;1999.90;999.90;;;;;;;9.85;100.00;93971.31;5105467;28;20171;-63
2023/05/13 04:44:38;;;;;;;1999.90;999.90;;;;;;;9.73;100.00;93969.31;5104861;28;20217;-64
2023/05/13 04:47:04;;;;;;;1999.90;999.90;;;;;;;9.76;100.00;93960.25;5105092;28;20193;-64
2023/05/13 04:49:29;;;;;;;1999.90;999.90;;;;;;;9.72;100.00;93959.59;5104813;28;20299;-64
2023/05/13 04:51:55;;;;;;;1999.90;999.90;;;;;;;9.73;100.00;93942.03;5104705;28;20201;-63
2023/05/13 04:54:20;;;;;;;1999.90;999.90;;;;;;;9.70;100.00;93933.97;5104702;28;20339;-63
2023/05/13 04:56:46;;;;;;;1999.90;999.90;;;;;;;9.72;100.00;93926.13;5104664;28;20198;-63
2023/05/13 04:59:11;;;;;;;1999.90;999.90;;;;;;;9.80;100.00;93922.75;5104502;28;20165;-65
2023/05/13 05:01:36;;;;;;;1999.90;999.90;;;;;;;9.78;100.00;93919.72;5104336;28;20175;-63
2023/05/13 05:04:02;;;;;;;1999.90;999.90;;;;;;;9.71;100.00;93917.19;5104562;28;20176;-62
2023/05/13 05:06:27;;;;;;;1999.90;999.90;;;;;;;9.69;100.00;93911.41;5104444;28;20170;-63
2023/05/13 05:08:53;;;;;;;1999.90;999.90;;;;;;;9.21;100.00;93897.22;5104463;28;20175;-63
2023/05/13 05:11:18;;;;;;;1999.90;999.90;;;;;;;9.20;100.00;93892.97;5104765;28;20204;-64
2023/05/13 05:13:43;;;;;;;1999.90;999.90;;;;;;;9.12;100.00;93857.00;5104383;28;20170;-63
2023/05/13 05:16:09;;;;;;;1999.90;999.90;;;;;;;9.18;100.00;93827.28;5104289;28;20176;-63
2023/05/13 05:18:39;;;;;;;1999.90;999.90;;;;;;;9.11;100.00;93822.78;5104239;28;20175;-63
2023/05/13 05:21:06;;;;;;;1999.90;999.90;;;;;;;9.16;100.00;93807.88;5104612;28;20213;-62
2023/05/13 05:23:32;;;;;;;1999.90;999.90;;;;;;;9.18;100.00;93806.25;5104638;28;20244;-64
2023/05/13 05:25:59;;;;;;;1999.90;999.90;;;;;;;9.16;100.00;93819.53;5104683;28;20168;-63
2023/05/13 05:28:24;;;;;;;1999.90;999.90;;;;;;;9.88;100.00;93815.03;5104126;28;20191;-61
2023/05/13 05:30:50;;;;;;;1999.90;999.90;;;;;;;10.02;100.00;93806.41;5104128;28;20210;-60
2023/05/13 05:33:17;;;;;;;1999.90;999.90;;;;;;;10.03;100.00;93815.34;5104065;28;20196;-61
2023/05/13 05:35:42;;;;;;;1999.90;999.90;;;;;;;10.06;100.00;93820.72;5104155;28;20177;-62
2023/05/13 05:38:07;;;;;;;1999.90;999.90;;;;;;;10.05;100.00;93843.72;5104515;28;20181;-62
2023/05/13 05:40:39;;;;;;;1999.90;999.90;;;;;;;10.13;100.00;93842.31;5103893;28;20180;-64
2023/05/13 05:43:04;;;;;;;1999.90;999.90;;;;;;;10.06;100.00;93858.16;5104551;28;20380;-63
2023/05/13 05:45:30;;;;;;;1999.90;999.90;;;;;;;10.03;100.00;93870.63;5104079;28;20193;-63
2023/05/13 05:47:56;;;;;;;1999.90;999.90;;;;;;;10.04;100.00;93883.09;5104482;28;20283;-62
2023/05/13 05:50:22;;;;;;;1999.90;999.90;;;;;;;10.07;100.00;93898.63;5103848;28;20173;-61
2023/05/13 05:52:48;;;;;;;1999.90;999.90;;;;;;;10.08;100.00;93904.81;5104220;28;20196;-63
2023/05/13 05:55:13;;;;;;;1999.90;999.90;;;;;;;10.17;100.00;93913.13;5104371;28;20169;-65
2023/05/13 05:57:39;;;;;;;1999.90;999.90;;;;;;;10.16;100.00;93921.75;5103888;28;20222;-63
2023/05/13 06:00:05;;;;;;;1999.90;999.90;;;;;;;10.12;100.00;93937.47;5103825;28;20173;-64
2023/05/13 06:02:30;;;;;;;1999.90;999.90;;;;;;;10.17;100.00;93939.63;5103638;28;20176;-62
2023/05/13 06:04:55;;;;;;;1999.90;999.90;;;;;;;10.25;100.00;93957.31;5103511;28;20251;-63
2023/05/13 06:07:21;;;;;;;1999.90;999.90;;;;;;;10.20;100.00;93966.03;5104110;28;20180;-64
2023/05/13 06:09:46;;;;;;;1999.90;999.90;;;;;;;10.01;100.00;93973.19;5103766;28;20179;-64
2023/05/13 06:12:11;;;;;;;1999.90;999.90;;;;;;;10.02;100.00;93975.47;5107064;28;20206;-63
2023/05/13 06:14:37;;;;;;;1999.90;999.90;;;;;;;9.93;100.00;93980.81;5107782;28;20198;-63
2023/05/13 06:17:02;;;;;;;1999.90;999.90;;;;;;;9.88;100.00;93994.97;5107556;28;20176;-64
2023/05/13 06:19:27;;;;;;;1999.90;999.90;;;;;;;10.02;100.00;93991.84;5107597;28;20265;-67
2023/05/13 06:21:53;;;;;;;1999.90;999.90;;;;;;;10.08;100.00;93992.09;5107619;28;20169;-66
2023/05/13 06:24:18;;;;;;;1999.90;999.90;;;;;;;10.02;100.00;94004.72;5108072;28;20223;-64
2023/05/13 06:26:44;;;;;;;1999.90;999.90;;;;;;;10.16;100.00;94009.78;5107579;28;20181;-63
2023/05/13 06:29:09;;;;;;;1999.90;999.90;;;;;;;10.13;100.00;94016.88;5107732;28;20240;-64
2023/05/13 06:31:35;;;;;;;1999.90;999.90;;;;;;;10.10;100.00;94017.72;5107769;28;20220;-64
2023/05/13 06:34:01;;;;;;;1999.90;999.90;;;;;;;10.21;100.00;94022.13;5107499;28;20192;-64
2023/05/13 06:36:26;;;;;;;1999.90;999.90;;;;;;;10.17;100.00;94030.41;5107207;28;20165;-64
2023/05/13 06:38:52;;;;;;;1999.90;999.90;;;;;;;10.09;100.00;94040.75;5107530;28;20171;-64
2023/05/13 06:41:18;;;;;;;1999.90;999.90;;;;;;;10.05;100.00;94042.81;5107147;28;20191;-64
2023/05/13 06:43:44;;;;;;;1999.90;999.90;;;;;;;10.19;100.00;94040.91;5107960;28;20170;-63
2023/05/13 06:46:10;;;;;;;1999.90;999.90;;;;;;;10.16;100.00;94036.31;5106937;28;20191;-62
2023/05/13 06:48:36;;;;;;;1999.90;999.90;;;;;;;10.25;100.00;94039.16;5107158;28;20166;-62
2023/05/13 06:51:01;;;;;;;1999.90;999.90;;;;;;;10.28;100.00;94043.75;5107489;28;20373;-61
2023/05/13 06:53:26;;;;;;;1999.90;999.90;;;;;;;10.21;100.00;94052.13;5107628;28;20199;-62
2023/05/13 06:55:52;;;;;;;1999.90;999.90;;;;;;;10.35;100.00;94054.47;5106922;28;20172;-63
2023/05/13 06:58:17;;;;;;;1999.90;999.90;;;;;;;10.33;100.00;94067.75;5106982;28;20169;-64
2023/05/13 07:00:45;;;;;;;1999.90;999.90;;;;;;;10.43;100.00;94074.88;5106797;28;20249;-63
2023/05/13 07:03:10;;;;;;;1999.90;999.90;;;;;;;10.55;100.00;94083.09;5106932;28;20169;-62
2023/05/13 07:05:35;;;;;;;1999.90;999.90;;;;;;;10.44;100.00;94100.97;5106731;28;20210;-63
2023/05/13 07:08:05;;;;;;;1999.90;999.90;;;;;;;10.37;100.00;94128.47;5106763;28;20165;-66
2023/05/13 07:10:32;;;;;;;1999.90;999.90;;;;;;;10.48;100.00;94129.69;5106520;28;20441;-66
2023/05/13 07:12:57;;;;;;;1999.90;999.90;;;;;;;10.69;100.00;94139.22;5106555;28;20201;-65
2023/05/13 07:15:23;;;;;;;1999.90;999.90;;;;;;;10.67;100.00;94163.47;5106558;28;20260;-65
2023/05/13 07:17:48;;;;;;;1999.90;999.90;;;;;;;10.71;100.00;94213.28;5106611;28;20246;-65
2023/05/13 07:20:14;;;;;;;1999.90;999.90;;;;;;;10.55;100.00;94259.72;5106740;28;20233;-64
2023/05/13 07:22:39;;;;;;;1999.90;999.90;;;;;;;10.57;100.00;94279.19;5105819;28;20173;-64
2023/05/13 07:25:05;;;;;;;1999.90;999.90;;;;;;;10.56;100.00;94299.50;5106494;28;20201;-59
2023/05/13 07:27:30;;;;;;;1999.90;999.90;;;;;;;10.64;100.00;94323.47;5106818;28;20182;-63
2023/05/13 07:29:56;;;;;;;1999.90;999.90;;;;;;;10.68;100.00;94339.75;5106913;28;20245;-62
2023/05/13 07:32:21;;;;;;;1999.90;999.90;;;;;;;10.52;100.00;94378.00;5106592;28;20241;-61
2023/05/13 07:34:47;;;;;;;1999.90;999.90;;;;;;;10.47;100.00;94401.09;5106279;28;20177;-62
2023/05/13 07:37:12;;;;;;;1999.90;999.90;;;;;;;10.56;100.00;94395.03;5106053;28;20166;-65
2023/05/13 07:39:38;;;;;;;1999.90;999.90;;;;;;;10.54;100.00;94416.53;5106545;28;20172;-63
2023/05/13 07:42:03;;;;;;;1999.90;999.90;;;;;;;10.63;100.00;94431.13;5106683;28;20170;-62
2023/05/13 07:44:29;;;;;;;1999.90;999.90;;;;;;;10.53;100.00;94436.84;5106338;28;20191;-63
2023/05/13 07:46:54;;;;;;;1999.90;999.90;;;;;;;10.63;100.00;94444.00;5106437;28;20170;-64
2023/05/13 07:49:20;;;;;;;1999.90;999.90;;;;;;;10.79;100.00;94444.00;5105767;28;20171;-63
2023/05/13 07:51:46;;;;;;;1999.90;999.90;;;;;;;10.70;100.00;94485.56;5105931;28;20207;-63
2023/05/13 07:54:11;;;;;;;1999.90;999.90;;;;;;;10.76;100.00;94497.50;5105809;28;20171;-64
2023/05/13 07:56:37;;;;;;;1999.90;999.90;;;;;;;10.85;100.00;94537.91;5106015;28;20172;-64
2023/05/13 07:59:03;;;;;;;1999.90;999.90;;;;;;;10.93;100.00;94547.47;5105754;28;20230;-63
2023/05/13 08:01:28;;;;;;;1999.90;999.90;;;;;;;10.70;100.00;94572.19;5105707;28;20169;-63
2023/05/13 08:03:54;;;;;;;1999.90;999.90;;;;;;;10.76;100.00;94584.13;5105732;28;20201;-63
2023/05/13 08:06:19;;;;;;;1999.90;999.90;;;;;;;10.62;100.00;94604.31;5106094;28;20175;-63
2023/05/13 08:08:45;;;;;;;1999.90;999.90;;;;;;;10.68;100.00;94599.13;5106055;28;20411;-63
2023/05/13 08:11:11;;;;;;;1999.90;999.90;;;;;;;10.79;100.00;94618.78;5105511;28;20207;-61
2023/05/13 08:13:37;;;;;;;1999.90;999.90;;;;;;;10.89;100.00;94639.63;5105942;28;20204;-63
2023/05/13 08:16:02;;;;;;;1999.90;999.90;;;;;;;10.97;100.00;94662.88;5106238;28;20239;-63
2023/05/13 08:18:28;;;;;;;1999.90;999.90;;;;;;;10.92;100.00;94698.88;5105362;28;20175;-63
2023/05/13 08:20:53;;;;;;;1999.90;999.90;;;;;;;11.14;100.00;94711.66;5105410;28;20226;-62
2023/05/13 08:23:19;;;;;;;1999.90;999.90;;;;;;;11.00;100.00;94742.00;5105331;28;20184;-61
2023/05/13 08:25:44;;;;;;;1999.90;999.90;;;;;;;10.71;100.00;94764.84;5105213;28;20226;-62
2023/05/13 08:28:10;;;;;;;1999.90;999.90;;;;;;;10.66;100.00;94746.22;5105974;28;20247;-62
2023/05/13 08:30:35;;;;;;;1999.90;999.90;;;;;;;10.61;100.00;94743.97;5105066;28;20185;-62
2023/05/13 08:33:00;;;;;;;1999.90;999.90;;;;;;;10.72;100.00;94733.63;5105074;28;20208;-62
2023/05/13 08:35:26;;;;;;;1999.90;999.90;;;;;;;10.88;100.00;94714.56;5104900;28;20178;-60
2023/05/13 08:37:51;;;;;;;1999.90;999.90;;;;;;;10.83;100.00;94710.38;5105117;28;20176;-62
2023/05/13 08:40:17;;;;;;;1999.90;999.90;;;;;;;10.84;100.00;94717.38;5104944;28;20300;-62
2023/05/13 08:42:46;;;;;;;1999.90;999.90;;;;;;;10.82;100.00;94716.25;5104981;28;20223;-61
2023/05/13 08:45:13;;;;;;;1999.90;999.90;;;;;;;10.73;100.00;94729.69;5104756;28;20198;-62
2023/05/13 08:47:55;;;;;;;1999.90;999.90;;;;;;;10.94;100.00;94718.34;5105293;28;20212;-62
2023/05/13 08:50:21;;;;;;;1999.90;999.90;;;;;;;11.00;100.00;94727.59;5104747;28;20166;-63
2023/05/13 08:52:50;;;;;;;1999.90;999.90;;;;;;;10.98;100.00;94730.75;5104691;28;20207;-62
2023/05/13 08:55:16;;;;;;;1999.90;999.90;;;;;;;11.14;100.00;94760.84;5104647;28;20175;-62
2023/05/13 08:57:41;;;;;;;1999.90;999.90;;;;;;;11.13;100.00;94769.47;5104854;28;20209;-62
2023/05/13 09:00:07;;;;;;;1999.90;999.90;;;;;;;11.49;100.00;94792.13;5105081;28;20177;-61
2023/05/13 09:02:33;;;;;;;1999.90;999.90;;;;;;;11.60;100.00;94829.00;5105003;28;20170;-63
2023/05/13 09:05:03;;;;;;;1999.90;999.90;;;;;;;11.63;100.00;94863.75;5104526;28;20178;-62
2023/05/13 09:07:33;;;;;;;1999.90;999.90;;;;;;;11.63;100.00;94890.31;5104884;28;20164;-63
2023/05/13 09:09:58;;;;;;;1999.90;999.90;;;;;;;11.53;100.00;94896.72;5104988;28;20179;-61
2023/05/13 09:12:55;;;;;;;1999.90;999.90;;;;;;;11.75;100.00;94922.50;5104314;28;20359;-63
2023/05/13 09:15:25;;;;;;;1999.90;999.90;;;;;;;11.77;100.00;94944.75;5104886;28;20179;-61
2023/05/13 09:17:58;;;;;;;1999.90;999.90;;;;;;;11.44;100.00;94970.34;5104340;28;20200;-61
2023/05/13 09:20:24;;;;;;;1999.90;999.90;;;;;;;11.32;100.00;94960.78;5104380;28;20215;-61
2023/05/13 09:22:59;;;;;;;1999.90;999.90;;;;;;;11.48;100.00;94960.13;5104217;28;20172;-63
2023/05/13 09:25:25;;;;;;;1999.90;999.90;;;;;;;11.64;100.00;94952.03;5104628;28;20212;-63
2023/05/13 09:27:58;;;;;;;1999.90;999.90;;;;;;;11.53;100.00;94957.69;5104482;28;20174;-60
2023/05/13 09:30:26;;;;;;;1999.90;999.90;;;;;;;11.47;100.00;94947.66;5104132;28;20206;-60
2023/05/13 09:33:20;;;;;;;1999.90;999.90;;;;;;;11.56;100.00;94956.06;5104046;28;20195;-63
2023/05/13 09:35:51;;;;;;;1999.90;999.90;;;;;;;11.65;100.00;94961.78;5103278;28;20187;-64
2023/05/13 09:38:21;;;;;;;1999.90;999.90;;;;;;;11.60;100.00;94945.81;5103915;28;20180;-61
2023/05/13 09:40:56;;;;;;;1999.90;999.90;;;;;;;11.80;100.00;94930.97;5103765;28;20242;-65
2023/05/13 09:43:23;;;;;;;1999.90;999.90;;;;;;;12.10;100.00;94919.78;5104460;28;20178;-65
2023/05/13 09:45:57;;;;;;;1999.90;999.90;;;;;;;12.47;100.00;94915.84;5102647;28;20196;-63
2023/05/13 09:48:26;;;;;;;1999.90;999.90;;;;;;;12.95;100.00;94902.13;5103778;28;20176;-65
2023/05/13 09:50:52;;;;;;;1999.90;999.90;;;;;;;12.71;100.00;94961.03;5103835;28;20469;-62
2023/05/13 09:53:20;;;;;;;1999.90;999.90;;;;;;;12.74;100.00;95006.75;5104187;28;20202;-65
2023/05/13 09:55:51;;;;;;;1999.90;999.90;;;;;;;13.16;100.00;95055.16;5103868;28;20244;-66
2023/05/13 09:58:19;;;;;;;1999.90;999.90;;;;;;;12.84;100.00;95105.19;5103482;28;20172;-64
2023/05/13 10:00:46;;;;;;;1999.90;999.90;;;;;;;12.70;100.00;95127.41;5104413;28;20248;-64
2023/05/13 10:03:12;;;;;;;1999.90;999.90;;;;;;;12.37;100.00;95141.38;5104260;28;20186;-63
2023/05/13 10:05:38;;;;;;;1999.90;999.90;;;;;;;12.54;100.00;95145.75;5103774;28;20173;-64
2023/05/13 10:08:07;;;;;;;1999.90;999.90;;;;;;;12.51;100.00;95152.84;5103667;28;20172;-63
2023/05/13 10:10:34;;;;;;;1999.90;999.90;;;;;;;13.24;100.00;95155.25;5103963;28;20172;-63
2023/05/13 10:13:10;;;;;;;1999.90;999.90;;;;;;;13.01;100.00;95183.53;5104134;28;20193;-63
2023/05/13 10:15:48;;;;;;;1999.90;999.90;;;;;;;12.94;100.00;95185.66;5104170;28;20168;-66
2023/05/13 10:18:15;;;;;;;1999.90;999.90;;;;;;;12.93;100.00;95181.38;5104477;28;20236;-65
2023/05/13 10:20:41;;;;;;;1999.90;999.90;;;;;;;12.85;100.00;95183.47;5103600;28;20443;-64
2023/05/13 10:23:07;;;;;;;1999.90;999.90;;;;;;;12.85;100.00;95188.16;5103637;28;20202;-64
2023/05/13 10:25:32;;;;;;;1999.90;999.90;;;;;;;12.78;100.00;95191.03;5104102;28;20353;-64
2023/05/13 10:27:58;;;;;;;1999.90;999.90;;;;;;;12.64;100.00;95191.34;5103493;28;20200;-63
2023/05/13 10:30:26;;;;;;;1999.90;999.90;;;;;;;12.39;100.00;95194.53;5103545;28;20169;-65
2023/05/13 10:32:53;;;;;;;1999.90;999.90;;;;;;;12.62;100.00;95177.28;5103993;28;20224;-67
2023/05/13 10:35:19;;;;;;;1999.90;999.90;;;;;;;12.60;100.00;95183.19;5103965;28;20175;-63
2023/05/13 10:38:07;;;;;;;1999.90;999.90;;;;;;;12.64;100.00;95188.59;5104034;28;20177;-63
2023/05/13 10:40:54;;;;;;;1999.90;999.90;;;;;;;12.67;100.00;95193.22;5104185;28;20164;-61
2023/05/13 10:43:27;;;;;;;1999.90;999.90;;;;;;;13.01;100.00;95207.47;5103998;28;20168;-63
2023/05/13 10:45:58;;;;;;;1999.90;999.90;;;;;;;13.09;100.00;95211.59;5104010;28;20242;-64